sensor_id;sensor_type;location;lat;lon;timestamp;P1;durP1;ratioP1;P2;durP2;ratioP2
19595;SDS011;9945;46.010;8.946;2022-12-07T00:00:44;4.87;;;4.20;;
19595;SDS011;9945;46.010;8.946;2022-12-07T00:03:11;4.93;;;4.40;;
19595;SDS011;9945;46.010;8.946;2022-12-07T00:05:38;5.80;;;4.30;;
19595;SDS011;9945;46.010;8.946;2022-12-07T00:08:05;5.83;;;4.37;;
19595;SDS011;9945;46.010;8.946;2022-12-07T00:10:34;6.53;;;4.60;;
19595;SDS011;9945;46.010;8.946;2022-12-07T00:13:01;4.77;;;4.37;;
19595;SDS011;9945;46.010;8.946;2022-12-07T00:15:28;4.60;;;4.20;;
19595;SDS011;9945;46.010;8.946;2022-12-07T00:17:55;5.43;;;4.37;;
19595;SDS011;9945;46.010;8.946;2022-12-07T00:20:21;5.13;;;4.63;;
19595;SDS011;9945;46.010;8.946;2022-12-07T00:22:48;5.00;;;4.17;;
19595;SDS011;9945;46.010;8.946;2022-12-07T00:25:16;4.50;;;3.70;;
19595;SDS011;9945;46.010;8.946;2022-12-07T00:27:44;5.50;;;4.33;;
19595;SDS011;9945;46.010;8.946;2022-12-07T00:30:11;6.67;;;4.53;;
19595;SDS011;9945;46.010;8.946;2022-12-07T00:32:38;5.03;;;3.93;;
19595;SDS011;9945;46.010;8.946;2022-12-07T00:35:05;5.10;;;4.47;;
19595;SDS011;9945;46.010;8.946;2022-12-07T00:37:32;4.70;;;4.30;;
19595;SDS011;9945;46.010;8.946;2022-12-07T00:39:59;4.50;;;4.10;;
19595;SDS011;9945;46.010;8.946;2022-12-07T00:42:26;4.60;;;4.20;;
19595;SDS011;9945;46.010;8.946;2022-12-07T00:44:54;4.47;;;4.07;;
19595;SDS011;9945;46.010;8.946;2022-12-07T00:47:21;4.40;;;4.00;;
19595;SDS011;9945;46.010;8.946;2022-12-07T00:49:48;4.30;;;3.80;;
19595;SDS011;9945;46.010;8.946;2022-12-07T00:52:15;4.43;;;4.03;;
19595;SDS011;9945;46.010;8.946;2022-12-07T00:54:42;4.20;;;3.80;;
19595;SDS011;9945;46.010;8.946;2022-12-07T00:57:10;4.17;;;3.57;;
19595;SDS011;9945;46.010;8.946;2022-12-07T00:59:37;4.40;;;3.90;;
19595;SDS011;9945;46.010;8.946;2022-12-07T01:02:05;4.77;;;3.60;;
19595;SDS011;9945;46.010;8.946;2022-12-07T01:04:33;3.67;;;3.37;;
19595;SDS011;9945;46.010;8.946;2022-12-07T01:07:00;3.80;;;3.50;;
19595;SDS011;9945;46.010;8.946;2022-12-07T01:09:27;4.50;;;4.10;;
19595;SDS011;9945;46.010;8.946;2022-12-07T01:11:54;4.60;;;3.63;;
19595;SDS011;9945;46.010;8.946;2022-12-07T01:14:20;3.63;;;3.33;;
19595;SDS011;9945;46.010;8.946;2022-12-07T01:16:47;3.80;;;3.43;;
19595;SDS011;9945;46.010;8.946;2022-12-07T01:19:16;3.77;;;3.33;;
19595;SDS011;9945;46.010;8.946;2022-12-07T01:21:42;3.00;;;2.80;;
19595;SDS011;9945;46.010;8.946;2022-12-07T01:24:10;4.17;;;3.10;;
19595;SDS011;9945;46.010;8.946;2022-12-07T01:26:37;3.27;;;3.07;;
19595;SDS011;9945;46.010;8.946;2022-12-07T01:29:04;3.43;;;3.13;;
19595;SDS011;9945;46.010;8.946;2022-12-07T01:31:31;5.27;;;3.50;;
19595;SDS011;9945;46.010;8.946;2022-12-07T01:33:58;3.53;;;3.13;;
19595;SDS011;9945;46.010;8.946;2022-12-07T01:36:28;3.93;;;3.00;;
19595;SDS011;9945;46.010;8.946;2022-12-07T01:38:56;3.43;;;3.13;;
19595;SDS011;9945;46.010;8.946;2022-12-07T01:41:25;3.60;;;2.90;;
19595;SDS011;9945;46.010;8.946;2022-12-07T01:44:10;3.30;;;3.00;;
19595;SDS011;9945;46.010;8.946;2022-12-07T01:46:40;2.47;;;2.27;;
19595;SDS011;9945;46.010;8.946;2022-12-07T01:49:10;2.90;;;2.60;;
19595;SDS011;9945;46.010;8.946;2022-12-07T01:51:42;2.57;;;2.37;;
19595;SDS011;9945;46.010;8.946;2022-12-07T01:54:11;2.90;;;2.60;;
19595;SDS011;9945;46.010;8.946;2022-12-07T01:56:41;2.60;;;2.10;;
19595;SDS011;9945;46.010;8.946;2022-12-07T01:59:13;2.23;;;2.00;;
19595;SDS011;9945;46.010;8.946;2022-12-07T02:01:41;3.07;;;2.77;;
19595;SDS011;9945;46.010;8.946;2022-12-07T02:04:08;3.37;;;2.17;;
19595;SDS011;9945;46.010;8.946;2022-12-07T02:06:37;2.67;;;2.33;;
19595;SDS011;9945;46.010;8.946;2022-12-07T02:09:06;2.50;;;2.30;;
19595;SDS011;9945;46.010;8.946;2022-12-07T02:11:33;2.87;;;2.67;;
19595;SDS011;9945;46.010;8.946;2022-12-07T02:14:00;2.43;;;2.33;;
19595;SDS011;9945;46.010;8.946;2022-12-07T02:16:29;3.90;;;2.60;;
19595;SDS011;9945;46.010;8.946;2022-12-07T02:19:09;2.83;;;2.20;;
19595;SDS011;9945;46.010;8.946;2022-12-07T02:21:51;4.63;;;2.73;;
19595;SDS011;9945;46.010;8.946;2022-12-07T02:24:28;4.30;;;2.63;;
19595;SDS011;9945;46.010;8.946;2022-12-07T02:27:19;2.73;;;2.53;;
19595;SDS011;9945;46.010;8.946;2022-12-07T02:30:01;2.30;;;2.20;;
19595;SDS011;9945;46.010;8.946;2022-12-07T02:32:33;3.47;;;2.60;;
19595;SDS011;9945;46.010;8.946;2022-12-07T02:35:09;2.60;;;2.20;;
19595;SDS011;9945;46.010;8.946;2022-12-07T02:37:42;4.73;;;2.33;;
19595;SDS011;9945;46.010;8.946;2022-12-07T02:40:16;3.97;;;2.17;;
19595;SDS011;9945;46.010;8.946;2022-12-07T02:42:48;2.90;;;2.17;;
19595;SDS011;9945;46.010;8.946;2022-12-07T02:45:23;1.90;;;1.80;;
19595;SDS011;9945;46.010;8.946;2022-12-07T02:47:55;2.87;;;1.83;;
19595;SDS011;9945;46.010;8.946;2022-12-07T02:50:24;2.30;;;1.90;;
19595;SDS011;9945;46.010;8.946;2022-12-07T02:52:52;2.37;;;2.17;;
19595;SDS011;9945;46.010;8.946;2022-12-07T02:55:21;4.47;;;2.13;;
19595;SDS011;9945;46.010;8.946;2022-12-07T03:00:50;2.30;;;2.10;;
19595;SDS011;9945;46.010;8.946;2022-12-07T03:03:21;2.20;;;2.00;;
19595;SDS011;9945;46.010;8.946;2022-12-07T03:05:54;2.10;;;2.00;;
19595;SDS011;9945;46.010;8.946;2022-12-07T03:08:35;1.83;;;1.73;;
19595;SDS011;9945;46.010;8.946;2022-12-07T03:11:09;2.30;;;1.97;;
19595;SDS011;9945;46.010;8.946;2022-12-07T03:13:40;2.23;;;2.00;;
19595;SDS011;9945;46.010;8.946;2022-12-07T03:16:14;2.27;;;2.00;;
19595;SDS011;9945;46.010;8.946;2022-12-07T03:18:44;3.83;;;1.70;;
19595;SDS011;9945;46.010;8.946;2022-12-07T03:21:16;3.40;;;1.90;;
19595;SDS011;9945;46.010;8.946;2022-12-07T03:23:47;5.77;;;2.10;;
19595;SDS011;9945;46.010;8.946;2022-12-07T03:26:17;2.33;;;2.13;;
19595;SDS011;9945;46.010;8.946;2022-12-07T03:28:48;2.13;;;2.00;;
19595;SDS011;9945;46.010;8.946;2022-12-07T03:31:21;2.20;;;2.00;;
19595;SDS011;9945;46.010;8.946;2022-12-07T03:33:52;2.00;;;1.90;;
19595;SDS011;9945;46.010;8.946;2022-12-07T03:36:28;1.70;;;1.60;;
19595;SDS011;9945;46.010;8.946;2022-12-07T03:39:00;1.87;;;1.77;;
19595;SDS011;9945;46.010;8.946;2022-12-07T03:41:34;1.80;;;1.70;;
19595;SDS011;9945;46.010;8.946;2022-12-07T03:44:03;1.87;;;1.67;;
19595;SDS011;9945;46.010;8.946;2022-12-07T03:46:34;1.87;;;1.77;;
19595;SDS011;9945;46.010;8.946;2022-12-07T03:49:08;1.67;;;1.57;;
19595;SDS011;9945;46.010;8.946;2022-12-07T03:51:45;2.80;;;1.90;;
19595;SDS011;9945;46.010;8.946;2022-12-07T03:54:19;2.00;;;1.80;;
19595;SDS011;9945;46.010;8.946;2022-12-07T03:56:50;3.57;;;1.70;;
19595;SDS011;9945;46.010;8.946;2022-12-07T03:59:20;2.00;;;1.80;;
19595;SDS011;9945;46.010;8.946;2022-12-07T04:01:52;1.90;;;1.50;;
19595;SDS011;9945;46.010;8.946;2022-12-07T04:04:21;1.67;;;1.57;;
19595;SDS011;9945;46.010;8.946;2022-12-07T04:06:48;2.03;;;1.83;;
19595;SDS011;9945;46.010;8.946;2022-12-07T04:09:15;2.43;;;1.87;;
19595;SDS011;9945;46.010;8.946;2022-12-07T04:11:43;1.97;;;1.87;;
19595;SDS011;9945;46.010;8.946;2022-12-07T04:14:10;3.00;;;1.57;;
19595;SDS011;9945;46.010;8.946;2022-12-07T04:16:46;1.70;;;1.60;;
19595;SDS011;9945;46.010;8.946;2022-12-07T04:19:15;2.17;;;1.97;;
19595;SDS011;9945;46.010;8.946;2022-12-07T04:21:43;2.10;;;1.70;;
19595;SDS011;9945;46.010;8.946;2022-12-07T04:24:11;2.30;;;2.10;;
19595;SDS011;9945;46.010;8.946;2022-12-07T04:26:39;1.70;;;1.60;;
19595;SDS011;9945;46.010;8.946;2022-12-07T04:29:06;2.50;;;1.83;;
19595;SDS011;9945;46.010;8.946;2022-12-07T04:31:33;2.07;;;1.77;;
19595;SDS011;9945;46.010;8.946;2022-12-07T04:34:00;1.73;;;1.60;;
19595;SDS011;9945;46.010;8.946;2022-12-07T04:36:28;2.17;;;1.80;;
19595;SDS011;9945;46.010;8.946;2022-12-07T04:38:55;1.70;;;1.60;;
19595;SDS011;9945;46.010;8.946;2022-12-07T04:41:22;1.53;;;1.43;;
19595;SDS011;9945;46.010;8.946;2022-12-07T04:43:53;1.20;;;1.20;;
19595;SDS011;9945;46.010;8.946;2022-12-07T04:46:21;1.90;;;1.80;;
19595;SDS011;9945;46.010;8.946;2022-12-07T04:48:48;1.50;;;1.40;;
19595;SDS011;9945;46.010;8.946;2022-12-07T04:51:16;1.60;;;1.50;;
19595;SDS011;9945;46.010;8.946;2022-12-07T04:53:47;1.40;;;1.30;;
19595;SDS011;9945;46.010;8.946;2022-12-07T04:56:15;1.83;;;1.70;;
19595;SDS011;9945;46.010;8.946;2022-12-07T04:58:43;1.60;;;1.50;;
19595;SDS011;9945;46.010;8.946;2022-12-07T05:01:11;1.90;;;1.47;;
19595;SDS011;9945;46.010;8.946;2022-12-07T05:03:38;1.00;;;1.00;;
19595;SDS011;9945;46.010;8.946;2022-12-07T05:06:06;2.03;;;1.10;;
19595;SDS011;9945;46.010;8.946;2022-12-07T05:08:33;1.27;;;1.17;;
19595;SDS011;9945;46.010;8.946;2022-12-07T05:11:02;1.27;;;1.17;;
19595;SDS011;9945;46.010;8.946;2022-12-07T05:13:30;1.73;;;1.30;;
19595;SDS011;9945;46.010;8.946;2022-12-07T05:15:58;1.37;;;1.27;;
19595;SDS011;9945;46.010;8.946;2022-12-07T05:18:25;1.50;;;1.40;;
19595;SDS011;9945;46.010;8.946;2022-12-07T05:20:52;1.53;;;1.43;;
19595;SDS011;9945;46.010;8.946;2022-12-07T05:23:19;1.23;;;1.13;;
19595;SDS011;9945;46.010;8.946;2022-12-07T05:25:46;1.43;;;1.33;;
19595;SDS011;9945;46.010;8.946;2022-12-07T05:28:14;2.80;;;1.30;;
19595;SDS011;9945;46.010;8.946;2022-12-07T05:30:41;1.23;;;1.23;;
19595;SDS011;9945;46.010;8.946;2022-12-07T05:33:08;1.43;;;1.33;;
19595;SDS011;9945;46.010;8.946;2022-12-07T05:35:35;4.23;;;1.30;;
19595;SDS011;9945;46.010;8.946;2022-12-07T05:38:03;1.50;;;1.40;;
19595;SDS011;9945;46.010;8.946;2022-12-07T05:40:30;4.00;;;1.40;;
19595;SDS011;9945;46.010;8.946;2022-12-07T05:42:56;1.43;;;1.33;;
19595;SDS011;9945;46.010;8.946;2022-12-07T05:45:25;1.50;;;1.40;;
19595;SDS011;9945;46.010;8.946;2022-12-07T05:47:52;3.00;;;1.40;;
19595;SDS011;9945;46.010;8.946;2022-12-07T05:50:18;2.50;;;1.57;;
19595;SDS011;9945;46.010;8.946;2022-12-07T05:52:45;1.50;;;1.40;;
19595;SDS011;9945;46.010;8.946;2022-12-07T05:55:12;2.47;;;1.67;;
19595;SDS011;9945;46.010;8.946;2022-12-07T05:57:39;1.73;;;1.50;;
19595;SDS011;9945;46.010;8.946;2022-12-07T06:00:27;1.60;;;1.50;;
19595;SDS011;9945;46.010;8.946;2022-12-07T06:02:53;2.83;;;1.27;;
19595;SDS011;9945;46.010;8.946;2022-12-07T06:05:20;1.93;;;1.23;;
19595;SDS011;9945;46.010;8.946;2022-12-07T06:07:47;1.60;;;1.47;;
19595;SDS011;9945;46.010;8.946;2022-12-07T06:10:14;3.13;;;1.17;;
19595;SDS011;9945;46.010;8.946;2022-12-07T06:12:41;1.87;;;1.70;;
19595;SDS011;9945;46.010;8.946;2022-12-07T06:15:08;1.87;;;1.77;;
19595;SDS011;9945;46.010;8.946;2022-12-07T06:17:39;1.60;;;1.50;;
19595;SDS011;9945;46.010;8.946;2022-12-07T06:20:06;1.77;;;1.63;;
19595;SDS011;9945;46.010;8.946;2022-12-07T06:22:34;2.53;;;2.30;;
19595;SDS011;9945;46.010;8.946;2022-12-07T06:25:01;1.67;;;1.57;;
19595;SDS011;9945;46.010;8.946;2022-12-07T06:27:29;6.43;;;2.10;;
19595;SDS011;9945;46.010;8.946;2022-12-07T06:29:57;1.77;;;1.67;;
19595;SDS011;9945;46.010;8.946;2022-12-07T06:32:24;2.83;;;1.87;;
19595;SDS011;9945;46.010;8.946;2022-12-07T06:34:53;1.93;;;1.80;;
19595;SDS011;9945;46.010;8.946;2022-12-07T06:37:20;1.93;;;1.83;;
19595;SDS011;9945;46.010;8.946;2022-12-07T06:39:46;2.20;;;2.10;;
19595;SDS011;9945;46.010;8.946;2022-12-07T06:42:13;2.50;;;2.30;;
19595;SDS011;9945;46.010;8.946;2022-12-07T06:44:40;2.00;;;1.90;;
19595;SDS011;9945;46.010;8.946;2022-12-07T06:47:07;3.40;;;1.83;;
19595;SDS011;9945;46.010;8.946;2022-12-07T06:49:34;2.03;;;1.93;;
19595;SDS011;9945;46.010;8.946;2022-12-07T06:52:03;2.20;;;1.97;;
19595;SDS011;9945;46.010;8.946;2022-12-07T06:54:31;3.07;;;2.10;;
19595;SDS011;9945;46.010;8.946;2022-12-07T06:56:58;2.63;;;1.97;;
19595;SDS011;9945;46.010;8.946;2022-12-07T06:59:24;1.80;;;1.70;;
19595;SDS011;9945;46.010;8.946;2022-12-07T07:01:51;2.17;;;1.90;;
19595;SDS011;9945;46.010;8.946;2022-12-07T07:04:18;2.00;;;1.80;;
19595;SDS011;9945;46.010;8.946;2022-12-07T07:06:45;1.63;;;1.53;;
19595;SDS011;9945;46.010;8.946;2022-12-07T07:09:14;1.67;;;1.57;;
19595;SDS011;9945;46.010;8.946;2022-12-07T07:11:40;4.20;;;1.80;;
19595;SDS011;9945;46.010;8.946;2022-12-07T07:14:07;1.97;;;1.83;;
19595;SDS011;9945;46.010;8.946;2022-12-07T07:16:34;4.77;;;4.27;;
19595;SDS011;9945;46.010;8.946;2022-12-07T07:19:01;2.37;;;2.17;;
19595;SDS011;9945;46.010;8.946;2022-12-07T07:21:28;1.97;;;1.77;;
19595;SDS011;9945;46.010;8.946;2022-12-07T07:23:55;1.80;;;1.70;;
19595;SDS011;9945;46.010;8.946;2022-12-07T07:26:23;1.97;;;1.70;;
19595;SDS011;9945;46.010;8.946;2022-12-07T07:28:50;2.27;;;1.50;;
19595;SDS011;9945;46.010;8.946;2022-12-07T07:31:17;1.73;;;1.63;;
19595;SDS011;9945;46.010;8.946;2022-12-07T07:33:44;2.37;;;2.10;;
19595;SDS011;9945;46.010;8.946;2022-12-07T07:36:11;2.47;;;1.70;;
19595;SDS011;9945;46.010;8.946;2022-12-07T07:38:38;2.30;;;2.00;;
19595;SDS011;9945;46.010;8.946;2022-12-07T07:41:05;3.43;;;2.30;;
19595;SDS011;9945;46.010;8.946;2022-12-07T07:43:33;2.90;;;2.10;;
19595;SDS011;9945;46.010;8.946;2022-12-07T07:46:00;4.90;;;2.27;;
19595;SDS011;9945;46.010;8.946;2022-12-07T07:48:27;3.13;;;2.07;;
19595;SDS011;9945;46.010;8.946;2022-12-07T07:50:54;1.90;;;1.80;;
19595;SDS011;9945;46.010;8.946;2022-12-07T07:53:21;1.83;;;1.67;;
19595;SDS011;9945;46.010;8.946;2022-12-07T07:55:51;1.83;;;1.73;;
19595;SDS011;9945;46.010;8.946;2022-12-07T07:58:18;1.53;;;1.43;;
19595;SDS011;9945;46.010;8.946;2022-12-07T08:00:46;1.63;;;1.53;;
19595;SDS011;9945;46.010;8.946;2022-12-07T08:03:13;3.27;;;1.63;;
19595;SDS011;9945;46.010;8.946;2022-12-07T08:05:40;1.70;;;1.60;;
19595;SDS011;9945;46.010;8.946;2022-12-07T08:08:07;1.90;;;1.63;;
19595;SDS011;9945;46.010;8.946;2022-12-07T08:10:34;2.30;;;1.77;;
19595;SDS011;9945;46.010;8.946;2022-12-07T08:13:02;3.30;;;1.93;;
19595;SDS011;9945;46.010;8.946;2022-12-07T08:15:39;2.83;;;1.60;;
19595;SDS011;9945;46.010;8.946;2022-12-07T08:18:09;1.60;;;1.50;;
19595;SDS011;9945;46.010;8.946;2022-12-07T08:20:40;3.97;;;2.00;;
19595;SDS011;9945;46.010;8.946;2022-12-07T08:23:08;3.93;;;1.70;;
19595;SDS011;9945;46.010;8.946;2022-12-07T08:25:36;3.23;;;1.90;;
19595;SDS011;9945;46.010;8.946;2022-12-07T08:28:03;2.13;;;1.93;;
19595;SDS011;9945;46.010;8.946;2022-12-07T08:30:30;1.97;;;1.73;;
19595;SDS011;9945;46.010;8.946;2022-12-07T08:32:58;3.00;;;2.10;;
19595;SDS011;9945;46.010;8.946;2022-12-07T08:35:26;2.87;;;2.00;;
19595;SDS011;9945;46.010;8.946;2022-12-07T08:37:53;2.30;;;2.10;;
19595;SDS011;9945;46.010;8.946;2022-12-07T08:40:20;7.70;;;2.13;;
19595;SDS011;9945;46.010;8.946;2022-12-07T08:42:48;3.17;;;2.33;;
19595;SDS011;9945;46.010;8.946;2022-12-07T08:45:16;5.90;;;2.30;;
19595;SDS011;9945;46.010;8.946;2022-12-07T08:47:44;3.97;;;2.00;;
19595;SDS011;9945;46.010;8.946;2022-12-07T08:50:15;5.70;;;2.10;;
19595;SDS011;9945;46.010;8.946;2022-12-07T08:52:44;3.87;;;1.97;;
19595;SDS011;9945;46.010;8.946;2022-12-07T08:55:14;3.23;;;2.00;;
19595;SDS011;9945;46.010;8.946;2022-12-07T08:57:41;2.37;;;2.17;;
19595;SDS011;9945;46.010;8.946;2022-12-07T09:00:09;4.53;;;2.13;;
19595;SDS011;9945;46.010;8.946;2022-12-07T09:02:36;6.50;;;2.00;;
19595;SDS011;9945;46.010;8.946;2022-12-07T09:05:03;4.45;;;2.63;;
19595;SDS011;9945;46.010;8.946;2022-12-07T09:07:31;2.97;;;1.90;;
19595;SDS011;9945;46.010;8.946;2022-12-07T09:10:02;2.30;;;2.10;;
19595;SDS011;9945;46.010;8.946;2022-12-07T09:12:29;2.83;;;1.77;;
19595;SDS011;9945;46.010;8.946;2022-12-07T09:14:56;2.83;;;2.08;;
19595;SDS011;9945;46.010;8.946;2022-12-07T09:17:23;4.07;;;2.15;;
19595;SDS011;9945;46.010;8.946;2022-12-07T09:19:50;3.10;;;2.17;;
19595;SDS011;9945;46.010;8.946;2022-12-07T09:22:17;4.10;;;2.35;;
19595;SDS011;9945;46.010;8.946;2022-12-07T09:24:44;3.42;;;2.28;;
19595;SDS011;9945;46.010;8.946;2022-12-07T09:27:13;3.72;;;2.10;;
19595;SDS011;9945;46.010;8.946;2022-12-07T09:29:41;4.45;;;2.10;;
19595;SDS011;9945;46.010;8.946;2022-12-07T09:32:08;3.72;;;2.40;;
19595;SDS011;9945;46.010;8.946;2022-12-07T09:34:35;4.70;;;2.40;;
19595;SDS011;9945;46.010;8.946;2022-12-07T09:37:02;4.47;;;2.40;;
19595;SDS011;9945;46.010;8.946;2022-12-07T09:39:29;2.47;;;2.28;;
19595;SDS011;9945;46.010;8.946;2022-12-07T09:41:56;3.75;;;2.35;;
19595;SDS011;9945;46.010;8.946;2022-12-07T09:44:26;2.60;;;2.40;;
19595;SDS011;9945;46.010;8.946;2022-12-07T09:46:54;2.83;;;2.50;;
19595;SDS011;9945;46.010;8.946;2022-12-07T09:49:22;6.30;;;2.83;;
19595;SDS011;9945;46.010;8.946;2022-12-07T09:51:59;5.38;;;2.55;;
19595;SDS011;9945;46.010;8.946;2022-12-07T09:54:28;4.53;;;2.60;;
19595;SDS011;9945;46.010;8.946;2022-12-07T09:56:56;3.80;;;2.38;;
19595;SDS011;9945;46.010;8.946;2022-12-07T09:59:26;4.78;;;2.55;;
19595;SDS011;9945;46.010;8.946;2022-12-07T10:01:53;8.82;;;3.22;;
19595;SDS011;9945;46.010;8.946;2022-12-07T10:04:20;4.60;;;2.60;;
19595;SDS011;9945;46.010;8.946;2022-12-07T10:06:49;3.00;;;2.70;;
19595;SDS011;9945;46.010;8.946;2022-12-07T10:09:18;2.85;;;2.50;;
19595;SDS011;9945;46.010;8.946;2022-12-07T10:12:02;3.75;;;2.60;;
19595;SDS011;9945;46.010;8.946;2022-12-07T10:14:32;4.00;;;2.90;;
19595;SDS011;9945;46.010;8.946;2022-12-07T10:17:01;4.57;;;3.47;;
19595;SDS011;9945;46.010;8.946;2022-12-07T10:19:28;4.03;;;2.60;;
19595;SDS011;9945;46.010;8.946;2022-12-07T10:22:11;5.68;;;2.63;;
19595;SDS011;9945;46.010;8.946;2022-12-07T10:24:40;5.80;;;2.83;;
19595;SDS011;9945;46.010;8.946;2022-12-07T10:27:17;4.10;;;2.97;;
19595;SDS011;9945;46.010;8.946;2022-12-07T10:29:50;8.68;;;3.25;;
19595;SDS011;9945;46.010;8.946;2022-12-07T10:32:27;3.08;;;2.83;;
19595;SDS011;9945;46.010;8.946;2022-12-07T10:35:15;5.88;;;3.00;;
19595;SDS011;9945;46.010;8.946;2022-12-07T10:37:46;3.45;;;3.13;;
19595;SDS011;9945;46.010;8.946;2022-12-07T10:40:23;5.32;;;3.25;;
19595;SDS011;9945;46.010;8.946;2022-12-07T10:43:00;3.92;;;2.90;;
19595;SDS011;9945;46.010;8.946;2022-12-07T10:45:30;3.80;;;3.40;;
19595;SDS011;9945;46.010;8.946;2022-12-07T10:47:59;6.95;;;3.28;;
19595;SDS011;9945;46.010;8.946;2022-12-07T10:50:39;5.28;;;2.92;;
19595;SDS011;9945;46.010;8.946;2022-12-07T10:53:29;8.40;;;3.40;;
19595;SDS011;9945;46.010;8.946;2022-12-07T11:02:30;5.72;;;3.88;;
19595;SDS011;9945;46.010;8.946;2022-12-07T11:05:23;6.32;;;3.88;;
19595;SDS011;9945;46.010;8.946;2022-12-07T11:07:58;3.75;;;3.45;;
19595;SDS011;9945;46.010;8.946;2022-12-07T11:10:31;3.10;;;2.88;;
19595;SDS011;9945;46.010;8.946;2022-12-07T11:13:14;4.78;;;2.88;;
19595;SDS011;9945;46.010;8.946;2022-12-07T11:15:59;3.58;;;3.28;;
19595;SDS011;9945;46.010;8.946;2022-12-07T11:18:42;4.95;;;3.25;;
19595;SDS011;9945;46.010;8.946;2022-12-07T11:21:17;4.35;;;2.83;;
19595;SDS011;9945;46.010;8.946;2022-12-07T11:23:52;4.80;;;3.42;;
19595;SDS011;9945;46.010;8.946;2022-12-07T11:26:32;3.90;;;3.60;;
19595;SDS011;9945;46.010;8.946;2022-12-07T11:29:13;4.43;;;4.05;;
19595;SDS011;9945;46.010;8.946;2022-12-07T11:31:56;4.47;;;3.13;;
19595;SDS011;9945;46.010;8.946;2022-12-07T11:34:33;4.30;;;3.90;;
19595;SDS011;9945;46.010;8.946;2022-12-07T11:37:07;3.70;;;2.95;;
19595;SDS011;9945;46.010;8.946;2022-12-07T11:39:39;4.63;;;2.70;;
19595;SDS011;9945;46.010;8.946;2022-12-07T11:42:14;4.40;;;2.78;;
19595;SDS011;9945;46.010;8.946;2022-12-07T11:44:48;2.80;;;2.42;;
19595;SDS011;9945;46.010;8.946;2022-12-07T11:47:21;3.35;;;2.50;;
19595;SDS011;9945;46.010;8.946;2022-12-07T11:49:56;3.40;;;2.38;;
19595;SDS011;9945;46.010;8.946;2022-12-07T11:52:38;2.38;;;2.22;;
19595;SDS011;9945;46.010;8.946;2022-12-07T11:55:14;5.57;;;2.10;;
19595;SDS011;9945;46.010;8.946;2022-12-07T11:57:47;2.50;;;2.40;;
19595;SDS011;9945;46.010;8.946;2022-12-07T12:00:20;4.57;;;2.75;;
19595;SDS011;9945;46.010;8.946;2022-12-07T12:02:49;2.55;;;2.30;;
19595;SDS011;9945;46.010;8.946;2022-12-07T12:05:24;5.13;;;2.70;;
19595;SDS011;9945;46.010;8.946;2022-12-07T12:07:54;4.93;;;2.50;;
19595;SDS011;9945;46.010;8.946;2022-12-07T12:10:32;3.50;;;2.47;;
19595;SDS011;9945;46.010;8.946;2022-12-07T12:13:12;3.35;;;2.60;;
19595;SDS011;9945;46.010;8.946;2022-12-07T12:15:58;2.70;;;2.50;;
19595;SDS011;9945;46.010;8.946;2022-12-07T12:18:51;4.57;;;2.15;;
19595;SDS011;9945;46.010;8.946;2022-12-07T12:21:31;4.70;;;2.28;;
19595;SDS011;9945;46.010;8.946;2022-12-07T12:24:02;2.30;;;2.20;;
19595;SDS011;9945;46.010;8.946;2022-12-07T12:26:36;4.25;;;2.00;;
19595;SDS011;9945;46.010;8.946;2022-12-07T12:29:05;3.75;;;2.33;;
19595;SDS011;9945;46.010;8.946;2022-12-07T12:31:46;2.63;;;2.25;;
19595;SDS011;9945;46.010;8.946;2022-12-07T12:34:32;4.18;;;2.72;;
19595;SDS011;9945;46.010;8.946;2022-12-07T12:37:17;2.63;;;2.42;;
19595;SDS011;9945;46.010;8.946;2022-12-07T12:55:19;5.82;;;3.10;;
19595;SDS011;9945;46.010;8.946;2022-12-07T13:10:22;11.93;;;2.50;;
19595;SDS011;9945;46.010;8.946;2022-12-07T13:12:58;7.93;;;2.53;;
19595;SDS011;9945;46.010;8.946;2022-12-07T13:15:33;3.80;;;2.60;;
19595;SDS011;9945;46.010;8.946;2022-12-07T13:18:04;5.78;;;2.80;;
19595;SDS011;9945;46.010;8.946;2022-12-07T13:20:50;5.72;;;2.50;;
19595;SDS011;9945;46.010;8.946;2022-12-07T13:23:19;5.65;;;2.67;;
19595;SDS011;9945;46.010;8.946;2022-12-07T13:28:40;4.60;;;2.60;;
19595;SDS011;9945;46.010;8.946;2022-12-07T13:31:12;5.72;;;3.20;;
19595;SDS011;9945;46.010;8.946;2022-12-07T13:33:55;7.35;;;3.25;;
19595;SDS011;9945;46.010;8.946;2022-12-07T13:36:22;5.20;;;2.88;;
19595;SDS011;9945;46.010;8.946;2022-12-07T13:38:52;4.68;;;2.70;;
19595;SDS011;9945;46.010;8.946;2022-12-07T13:41:22;3.55;;;2.90;;
19595;SDS011;9945;46.010;8.946;2022-12-07T13:43:51;6.07;;;3.33;;
19595;SDS011;9945;46.010;8.946;2022-12-07T13:46:27;3.22;;;3.03;;
19595;SDS011;9945;46.010;8.946;2022-12-07T13:49:02;3.38;;;3.10;;
19595;SDS011;9945;46.010;8.946;2022-12-07T13:51:29;3.33;;;3.05;;
19595;SDS011;9945;46.010;8.946;2022-12-07T13:54:07;3.08;;;2.78;;
19595;SDS011;9945;46.010;8.946;2022-12-07T13:56:38;3.50;;;3.15;;
19595;SDS011;9945;46.010;8.946;2022-12-07T13:59:07;2.50;;;2.30;;
19595;SDS011;9945;46.010;8.946;2022-12-07T14:01:40;2.78;;;2.58;;
19595;SDS011;9945;46.010;8.946;2022-12-07T14:04:18;4.53;;;2.28;;
19595;SDS011;9945;46.010;8.946;2022-12-07T14:06:55;2.75;;;2.53;;
19595;SDS011;9945;46.010;8.946;2022-12-07T14:09:23;2.35;;;2.22;;
19595;SDS011;9945;46.010;8.946;2022-12-07T14:11:53;4.07;;;2.38;;
19595;SDS011;9945;46.010;8.946;2022-12-07T14:14:22;3.88;;;2.75;;
19595;SDS011;9945;46.010;8.946;2022-12-07T14:16:58;2.80;;;2.60;;
19595;SDS011;9945;46.010;8.946;2022-12-07T14:22:20;2.47;;;2.28;;
19595;SDS011;9945;46.010;8.946;2022-12-07T14:24:57;3.53;;;2.70;;
19595;SDS011;9945;46.010;8.946;2022-12-07T14:27:30;2.75;;;2.28;;
19595;SDS011;9945;46.010;8.946;2022-12-07T14:30:00;7.15;;;2.80;;
19595;SDS011;9945;46.010;8.946;2022-12-07T14:32:27;2.53;;;2.33;;
19595;SDS011;9945;46.010;8.946;2022-12-07T14:34:56;3.35;;;2.47;;
19595;SDS011;9945;46.010;8.946;2022-12-07T14:37:25;4.90;;;2.55;;
19595;SDS011;9945;46.010;8.946;2022-12-07T14:39:53;4.13;;;2.67;;
19595;SDS011;9945;46.010;8.946;2022-12-07T14:42:20;2.70;;;2.50;;
19595;SDS011;9945;46.010;8.946;2022-12-07T14:44:51;3.20;;;2.80;;
19595;SDS011;9945;46.010;8.946;2022-12-07T14:47:18;3.22;;;2.40;;
19595;SDS011;9945;46.010;8.946;2022-12-07T14:49:44;4.75;;;2.58;;
19595;SDS011;9945;46.010;8.946;2022-12-07T14:52:13;4.57;;;2.50;;
19595;SDS011;9945;46.010;8.946;2022-12-07T14:54:42;6.15;;;2.10;;
19595;SDS011;9945;46.010;8.946;2022-12-07T14:57:10;2.63;;;2.42;;
19595;SDS011;9945;46.010;8.946;2022-12-07T14:59:37;6.88;;;2.90;;
19595;SDS011;9945;46.010;8.946;2022-12-07T15:02:06;3.60;;;2.87;;
19595;SDS011;9945;46.010;8.946;2022-12-07T15:04:36;3.43;;;2.70;;
19595;SDS011;9945;46.010;8.946;2022-12-07T15:07:03;6.83;;;2.90;;
19595;SDS011;9945;46.010;8.946;2022-12-07T15:09:32;6.20;;;2.90;;
19595;SDS011;9945;46.010;8.946;2022-12-07T15:11:59;6.93;;;3.33;;
19595;SDS011;9945;46.010;8.946;2022-12-07T15:14:26;4.60;;;3.40;;
19595;SDS011;9945;46.010;8.946;2022-12-07T15:16:53;7.20;;;2.90;;
19595;SDS011;9945;46.010;8.946;2022-12-07T15:19:22;6.53;;;3.07;;
19595;SDS011;9945;46.010;8.946;2022-12-07T15:21:51;5.00;;;3.10;;
19595;SDS011;9945;46.010;8.946;2022-12-07T15:24:18;3.20;;;2.90;;
19595;SDS011;9945;46.010;8.946;2022-12-07T15:26:45;4.77;;;3.33;;
19595;SDS011;9945;46.010;8.946;2022-12-07T15:29:12;3.60;;;3.30;;
19595;SDS011;9945;46.010;8.946;2022-12-07T15:31:40;7.20;;;3.17;;
19595;SDS011;9945;46.010;8.946;2022-12-07T15:34:07;5.07;;;3.07;;
19595;SDS011;9945;46.010;8.946;2022-12-07T15:36:35;3.83;;;3.43;;
19595;SDS011;9945;46.010;8.946;2022-12-07T15:39:02;4.27;;;3.20;;
19595;SDS011;9945;46.010;8.946;2022-12-07T15:41:29;5.80;;;3.10;;
19595;SDS011;9945;46.010;8.946;2022-12-07T15:43:56;5.17;;;3.10;;
19595;SDS011;9945;46.010;8.946;2022-12-07T15:46:41;7.27;;;2.83;;
19595;SDS011;9945;46.010;8.946;2022-12-07T15:49:10;6.63;;;3.13;;
19595;SDS011;9945;46.010;8.946;2022-12-07T15:51:41;4.13;;;3.10;;
19595;SDS011;9945;46.010;8.946;2022-12-07T15:54:10;5.33;;;2.77;;
19595;SDS011;9945;46.010;8.946;2022-12-07T15:56:39;4.80;;;3.03;;
19595;SDS011;9945;46.010;8.946;2022-12-07T15:59:06;4.10;;;3.10;;
19595;SDS011;9945;46.010;8.946;2022-12-07T16:01:33;3.50;;;3.20;;